DLH447A KDEN-EDDF
Flight info
| Callsign | DLH447A |
|---|---|
| Flight time | N/A |
| Altitude | 37000 |
| Route | HHOTH2 JOBBA DCT KD78Y DCT KP90A DCT GABOV DCT 55N086W/N0497F390 DCT TEFFO DCT KAGLY/M085F390 DCT CLAVY DCT 65N050W 6430N04000W 6330N03000W/M085F410 6130N02000W DCT BALIX/N0487F410 DCT NINEX DCT ROBEM DCT ERLOT DCT ROKAN DCT TOPPA DCT SOGPO DCT DIXAT DIXAT1A |
| Aircraft | A359/H-SDE2E3GHIJ3J4J5LM1ORWXY/LB1D1 |
Departure
| Time | N/A |
|---|---|
| Airport | Denver International Airport (KDEN) |
Arrival
| Time | 2026-05-04 04:48 |
|---|---|
| Airport | Frankfurt Main Airport (EDDF) |
| Time | Latitude | Longitude | Altitude | Speed | Heading |
|---|---|---|---|---|---|
| 2026-05-04 04:13 | 52.39105 | 5.48579 | 40926 ft | 495 kts | 135° |
| 2026-05-04 04:14 | 52.34513 | 5.56973 | 40944 ft | 495 kts | 136° |
| 2026-05-04 04:14 | 52.29918 | 5.65342 | 40967 ft | 494 kts | 136° |
| 2026-05-04 04:15 | 52.25325 | 5.73678 | 40968 ft | 494 kts | 136° |
| 2026-05-04 04:15 | 52.20715 | 5.82018 | 40954 ft | 494 kts | 136° |
| 2026-05-04 04:16 | 52.16108 | 5.90325 | 40971 ft | 494 kts | 136° |
| 2026-05-04 04:16 | 52.13100 | 5.95735 | 40953 ft | 494 kts | 136° |
| 2026-05-04 04:17 | 52.09062 | 6.02981 | 40963 ft | 491 kts | 136° |
| 2026-05-04 04:17 | 52.04480 | 6.11175 | 40965 ft | 489 kts | 136° |
| 2026-05-04 04:18 | 51.99900 | 6.19336 | 40963 ft | 489 kts | 137° |
| 2026-05-04 04:18 | 51.95093 | 6.27082 | 40964 ft | 484 kts | 144° |
| 2026-05-04 04:19 | 51.89893 | 6.33981 | 40963 ft | 483 kts | 145° |
| 2026-05-04 04:19 | 51.84698 | 6.40779 | 40959 ft | 483 kts | 145° |
| 2026-05-04 04:20 | 51.79467 | 6.47594 | 40961 ft | 482 kts | 146° |
| 2026-05-04 04:20 | 51.74237 | 6.54383 | 40959 ft | 482 kts | 146° |
| 2026-05-04 04:21 | 51.69004 | 6.61154 | 40954 ft | 482 kts | 146° |
| 2026-05-04 04:21 | 51.63769 | 6.67908 | 40733 ft | 482 kts | 146° |
| 2026-05-04 04:22 | 51.61151 | 6.71278 | 40502 ft | 482 kts | 146° |
| 2026-05-04 04:22 | 51.58542 | 6.74631 | 40258 ft | 481 kts | 146° |
| 2026-05-04 04:22 | 51.55929 | 6.77984 | 39827 ft | 480 kts | 146° |
| 2026-05-04 04:22 | 51.53318 | 6.81330 | 39184 ft | 480 kts | 147° |
| 2026-05-04 04:23 | 51.50707 | 6.84670 | 38509 ft | 480 kts | 147° |
| 2026-05-04 04:23 | 51.48095 | 6.88006 | 37779 ft | 479 kts | 147° |
| 2026-05-04 04:23 | 51.45494 | 6.91325 | 37108 ft | 477 kts | 147° |
| 2026-05-04 04:23 | 51.42905 | 6.94621 | 36454 ft | 475 kts | 147° |
| 2026-05-04 04:24 | 51.40316 | 6.97914 | 35791 ft | 474 kts | 147° |
| 2026-05-04 04:24 | 51.37739 | 7.01185 | 35099 ft | 474 kts | 147° |
| 2026-05-04 04:24 | 51.35143 | 7.04476 | 34327 ft | 476 kts | 147° |
| 2026-05-04 04:24 | 51.32544 | 7.07764 | 33488 ft | 478 kts | 147° |
| 2026-05-04 04:25 | 51.29936 | 7.11059 | 32644 ft | 478 kts | 147° |
| 2026-05-04 04:25 | 51.27290 | 7.14263 | 31816 ft | 475 kts | 152° |
| 2026-05-04 04:25 | 51.24463 | 7.16916 | 30966 ft | 470 kts | 159° |
| 2026-05-04 04:25 | 51.21541 | 7.19264 | 30097 ft | 471 kts | 160° |
| 2026-05-04 04:26 | 51.18599 | 7.21577 | 29086 ft | 472 kts | 160° |
| 2026-05-04 04:26 | 51.15655 | 7.23896 | 28343 ft | 469 kts | 160° |
| 2026-05-04 04:26 | 51.12746 | 7.26192 | 27715 ft | 463 kts | 159° |
| 2026-05-04 04:26 | 51.09873 | 7.28480 | 27074 ft | 459 kts | 158° |
| 2026-05-04 04:27 | 51.07051 | 7.30806 | 26418 ft | 456 kts | 158° |
| 2026-05-04 04:27 | 51.04255 | 7.33125 | 25767 ft | 452 kts | 157° |
| 2026-05-04 04:27 | 51.01470 | 7.35435 | 25145 ft | 453 kts | 157° |
| 2026-05-04 04:27 | 50.98674 | 7.37739 | 24509 ft | 452 kts | 157° |
| 2026-05-04 04:28 | 50.95888 | 7.40032 | 23900 ft | 449 kts | 157° |
| 2026-05-04 04:28 | 50.93137 | 7.42294 | 23235 ft | 444 kts | 157° |
| 2026-05-04 04:28 | 50.90398 | 7.44545 | 22629 ft | 439 kts | 156° |
| 2026-05-04 04:28 | 50.87808 | 7.47084 | 22430 ft | 438 kts | 148° |
| 2026-05-04 04:29 | 50.85518 | 7.50273 | 21683 ft | 442 kts | 137° |
| 2026-05-04 04:29 | 50.83652 | 7.54170 | 20905 ft | 445 kts | 128° |
| 2026-05-04 04:29 | 50.81964 | 7.58253 | 20383 ft | 442 kts | 127° |
| 2026-05-04 04:29 | 50.80305 | 7.62330 | 19891 ft | 441 kts | 126° |
| 2026-05-04 04:30 | 50.78646 | 7.66403 | 19435 ft | 439 kts | 126° |
| 2026-05-04 04:30 | 50.76994 | 7.70450 | 19036 ft | 437 kts | 126° |
| 2026-05-04 04:30 | 50.75352 | 7.74465 | 18647 ft | 434 kts | 126° |
| 2026-05-04 04:30 | 50.73716 | 7.78459 | 18228 ft | 432 kts | 126° |
| 2026-05-04 04:31 | 50.72086 | 7.82430 | 17769 ft | 430 kts | 126° |
| 2026-05-04 04:31 | 50.70469 | 7.86365 | 17318 ft | 427 kts | 126° |
| 2026-05-04 04:31 | 50.68854 | 7.90290 | 16880 ft | 425 kts | 126° |
| 2026-05-04 04:31 | 50.67250 | 7.94180 | 16444 ft | 422 kts | 126° |
| 2026-05-04 04:32 | 50.65653 | 7.98049 | 15981 ft | 420 kts | 126° |
| 2026-05-04 04:32 | 50.64063 | 8.01891 | 15576 ft | 418 kts | 126° |
| 2026-05-04 04:32 | 50.62481 | 8.05712 | 15168 ft | 416 kts | 126° |
| 2026-05-04 04:32 | 50.60901 | 8.09522 | 14812 ft | 414 kts | 126° |
| 2026-05-04 04:33 | 50.59332 | 8.13299 | 14442 ft | 411 kts | 126° |
| 2026-05-04 04:33 | 50.57770 | 8.17056 | 14089 ft | 409 kts | 126° |
| 2026-05-04 04:33 | 50.56215 | 8.20790 | 13683 ft | 407 kts | 126° |
| 2026-05-04 04:33 | 50.54668 | 8.24500 | 13228 ft | 404 kts | 126° |
| 2026-05-04 04:34 | 50.53151 | 8.28131 | 12797 ft | 402 kts | 126° |
| 2026-05-04 04:34 | 50.51600 | 8.31838 | 12355 ft | 399 kts | 127° |
| 2026-05-04 04:34 | 50.50079 | 8.35471 | 11924 ft | 397 kts | 127° |
| 2026-05-04 04:34 | 50.48602 | 8.38995 | 11496 ft | 386 kts | 127° |
| 2026-05-04 04:35 | 50.47148 | 8.42461 | 11084 ft | 375 kts | 127° |
| 2026-05-04 04:35 | 50.45729 | 8.45838 | 10683 ft | 366 kts | 127° |
| 2026-05-04 04:35 | 50.44345 | 8.49125 | 10284 ft | 357 kts | 127° |
| 2026-05-04 04:35 | 50.42990 | 8.52340 | 9886 ft | 349 kts | 127° |
| 2026-05-04 04:36 | 50.41665 | 8.55481 | 9493 ft | 341 kts | 127° |
| 2026-05-04 04:36 | 50.40370 | 8.58544 | 9064 ft | 332 kts | 127° |
| 2026-05-04 04:36 | 50.39132 | 8.61474 | 8617 ft | 314 kts | 127° |
| 2026-05-04 04:36 | 50.37953 | 8.64259 | 8229 ft | 300 kts | 127° |
| 2026-05-04 04:37 | 50.34633 | 8.72079 | 7052 ft | 274 kts | 127° |
| 2026-05-04 04:37 | 50.33598 | 8.74516 | 6685 ft | 266 kts | 127° |
| 2026-05-04 04:38 | 50.32580 | 8.76908 | 6293 ft | 263 kts | 127° |
| 2026-05-04 04:38 | 50.31566 | 8.79284 | 5916 ft | 262 kts | 127° |
| 2026-05-04 04:38 | 50.30557 | 8.81643 | 5605 ft | 260 kts | 127° |
| 2026-05-04 04:38 | 50.29553 | 8.83991 | 5369 ft | 259 kts | 127° |
| 2026-05-04 04:39 | 50.28554 | 8.86327 | 5201 ft | 257 kts | 126° |
| 2026-05-04 04:39 | 50.27563 | 8.88644 | 5026 ft | 256 kts | 126° |
| 2026-05-04 04:39 | 50.26573 | 8.90956 | 4852 ft | 255 kts | 126° |
| 2026-05-04 04:39 | 50.25587 | 8.93255 | 4667 ft | 254 kts | 126° |
| 2026-05-04 04:40 | 50.24452 | 8.95338 | 4491 ft | 250 kts | 143° |
| 2026-05-04 04:40 | 50.22974 | 8.96505 | 4328 ft | 243 kts | 170° |
| 2026-05-04 04:40 | 50.21352 | 8.96552 | 4187 ft | 238 kts | 191° |
| 2026-05-04 04:40 | 50.19725 | 8.96096 | 4031 ft | 237 kts | 193° |
| 2026-05-04 04:41 | 50.18105 | 8.95583 | 3991 ft | 238 kts | 193° |
| 2026-05-04 04:41 | 50.16481 | 8.95074 | 3988 ft | 238 kts | 193° |
| 2026-05-04 04:41 | 50.14871 | 8.94578 | 3988 ft | 232 kts | 193° |
| 2026-05-04 04:41 | 50.13335 | 8.93973 | 3978 ft | 226 kts | 207° |
| 2026-05-04 04:42 | 50.12192 | 8.92387 | 3994 ft | 222 kts | 236° |
| 2026-05-04 04:42 | 50.11500 | 8.90254 | 3985 ft | 217 kts | 249° |
| 2026-05-04 04:42 | 50.11014 | 8.88124 | 3990 ft | 200 kts | 250° |
| 2026-05-04 04:42 | 50.10558 | 8.86157 | 4012 ft | 190 kts | 249° |
| 2026-05-04 04:43 | 50.10107 | 8.84269 | 3870 ft | 185 kts | 249° |
| 2026-05-04 04:43 | 50.09660 | 8.82405 | 3606 ft | 182 kts | 249° |
| 2026-05-04 04:43 | 50.09226 | 8.80578 | 3364 ft | 178 kts | 249° |
| 2026-05-04 04:43 | 50.08814 | 8.78843 | 3117 ft | 175 kts | 249° |
| 2026-05-04 04:44 | 50.08398 | 8.77099 | 2863 ft | 169 kts | 249° |
| 2026-05-04 04:44 | 50.08002 | 8.75433 | 2651 ft | 158 kts | 249° |
| 2026-05-04 04:44 | 50.07633 | 8.73880 | 2437 ft | 148 kts | 249° |
| 2026-05-04 04:44 | 50.07320 | 8.72416 | 2225 ft | 138 kts | 253° |
| 2026-05-04 04:45 | 50.07143 | 8.70969 | 1993 ft | 131 kts | 261° |
| 2026-05-04 04:45 | 50.07006 | 8.69603 | 1795 ft | 129 kts | 256° |
| 2026-05-04 04:45 | 50.06765 | 8.68261 | 1637 ft | 128 kts | 251° |
| 2026-05-04 04:47 | 50.04908 | 8.60319 | 624 ft | 134 kts | 248° |
| 2026-05-04 04:47 | 50.04577 | 8.58976 | 458 ft | 133 kts | 249° |
| 2026-05-04 04:47 | 50.04264 | 8.57641 | 376 ft | 127 kts | 246° |
| 2026-05-04 04:47 | 50.04001 | 8.56565 | 368 ft | 87 kts | 250° |
| 2026-05-04 04:48 | 50.03839 | 8.55873 | 358 ft | 49 kts | 249° |
| 2026-05-04 04:49 | 50.03963 | 8.55591 | 361 ft | 13 kts | 70° |
| 2026-05-04 04:49 | 50.03997 | 8.55736 | 365 ft | 15 kts | 69° |
| 2026-05-04 04:49 | 50.04035 | 8.55896 | 364 ft | 16 kts | 70° |
| 2026-05-04 04:49 | 50.04108 | 8.55962 | 367 ft | 13 kts | 350° |
| 2026-05-04 04:50 | 50.04193 | 8.55916 | 364 ft | 13 kts | 348° |
| 2026-05-04 04:50 | 50.04263 | 8.55958 | 367 ft | 11 kts | 14° |
| 2026-05-04 04:50 | 50.04343 | 8.55929 | 369 ft | 13 kts | 340° |
| 2026-05-04 04:50 | 50.04434 | 8.55910 | 369 ft | 14 kts | 18° |
| 2026-05-04 04:51 | 50.04519 | 8.55954 | 368 ft | 11 kts | 18° |
| 2026-05-04 04:51 | 50.04565 | 8.56013 | 370 ft | 9 kts | 64° |
| 2026-05-04 04:51 | 50.04592 | 8.56121 | 370 ft | 12 kts | 69° |
| 2026-05-04 04:51 | 50.04622 | 8.56247 | 368 ft | 13 kts | 70° |
| 2026-05-04 04:52 | 50.04654 | 8.56384 | 366 ft | 12 kts | 70° |
| 2026-05-04 04:52 | 50.04679 | 8.56492 | 370 ft | 7 kts | 70° |
| 2026-05-04 04:52 | 50.04701 | 8.56535 | 370 ft | 4 kts | 20° |
| 2026-05-04 04:52 | 50.04730 | 8.56523 | 370 ft | 6 kts | 340° |
| 2026-05-04 04:53 | 50.04763 | 8.56504 | 369 ft | 4 kts | 340° |
| 2026-05-04 04:53 | 50.04776 | 8.56496 | 369 ft | 0 kts | 340° |